Aviation Digital Data Service (ADDS)

Output produced by METARs form (1142 UTC 10 July 2020)
found at http://www.aviationweather.gov/metar/data/
 
METAR text: RJFM 101100Z 35003KT 300V060 9999 -SHRA FEW015 SCT035 BKN110 26/24 Q1006
Conditions at: RJFM (MIYAZAKI AIRPORT, JP) observed 1100 UTC 10 July 2020
Temperature: 26.0°C (79°F)
Dewpoint: 24.0°C (75°F) [RH = 89%]
Pressure (altimeter): 29.70 inches Hg (1006.0 mb)
Winds: from the N (350 degrees) at 3 MPH (3 knots; 1.5 m/s)
Visibility: 6 or more miles (10+ km)
Ceiling: 11000 feet AGL
Clouds: few clouds at 1500 feet AGL
scattered clouds at 3500 feet AGL
broken clouds at 11000 feet AGL
Weather: -SHRA  (light rain showers)

METAR text: RJFM 101000Z 23005KT 9999 -SHRA FEW010 SCT035 BKN060 27/25 Q1007
Conditions at: RJFM (MIYAZAKI AIRPORT, JP) observed 1000 UTC 10 July 2020
Temperature: 27.0°C (81°F)
Dewpoint: 25.0°C (77°F) [RH = 89%]
Pressure (altimeter): 29.73 inches Hg (1007.0 mb)
Winds: from the SW (230 degrees) at 6 MPH (5 knots; 2.6 m/s)
Visibility: 6 or more miles (10+ km)
Ceiling: 6000 feet AGL
Clouds: few clouds at 1000 feet AGL
scattered clouds at 3500 feet AGL
broken clouds at 6000 feet AGL
Weather: -SHRA  (light rain showers)

METAR text: RJFM 100900Z 23007KT 9999 -SHRA FEW010 SCT015 BKN060 27/25 Q1006
Conditions at: RJFM (MIYAZAKI AIRPORT, JP) observed 0900 UTC 10 July 2020
Temperature: 27.0°C (81°F)
Dewpoint: 25.0°C (77°F) [RH = 89%]
Pressure (altimeter): 29.70 inches Hg (1006.0 mb)
Winds: from the SW (230 degrees) at 8 MPH (7 knots; 3.6 m/s)
Visibility: 6 or more miles (10+ km)
Ceiling: 6000 feet AGL
Clouds: few clouds at 1000 feet AGL
scattered clouds at 1500 feet AGL
broken clouds at 6000 feet AGL
Weather: -SHRA  (light rain showers)

METAR text: RJFM 100800Z 18009KT 9999 -SHRA FEW015 FEW020CB SCT050 BKN/// 29/25 Q1006
Conditions at: RJFM (MIYAZAKI AIRPORT, JP) observed 0800 UTC 10 July 2020
Temperature: 29.0°C (84°F)
Dewpoint: 25.0°C (77°F) [RH = 79%]
Pressure (altimeter): 29.70 inches Hg (1006.0 mb)
Winds: from the S (180 degrees) at 10 MPH (9 knots; 4.6 m/s)
Visibility: 6 or more miles (10+ km)
Ceiling: at least 12,000 feet AGL
Clouds: few clouds at 1500 feet AGL
few clouds at 2000 feet AGL
scattered clouds at 5000 feet AGL
Weather: -SHRA  (light rain showers)

METAR text: RJFM 100700Z 18011KT 9999 FEW015 FEW020CB SCT060 BKN/// 30/24 Q1006
Conditions at: RJFM (MIYAZAKI AIRPORT, JP) observed 0700 UTC 10 July 2020
Temperature: 30.0°C (86°F)
Dewpoint: 24.0°C (75°F) [RH = 70%]
Pressure (altimeter): 29.70 inches Hg (1006.0 mb)
Winds: from the S (180 degrees) at 13 MPH (11 knots; 5.7 m/s)
Visibility: 6 or more miles (10+ km)
Ceiling: at least 12,000 feet AGL
Clouds: few clouds at 1500 feet AGL
few clouds at 2000 feet AGL
scattered clouds at 6000 feet AGL
Weather: no significant weather observed at this time

METAR text: RJFM 100600Z 18012KT 9999 -SHRA FEW015 SCT060 BKN150 29/25 Q1006
Conditions at: RJFM (MIYAZAKI AIRPORT, JP) observed 0600 UTC 10 July 2020
Temperature: 29.0°C (84°F)
Dewpoint: 25.0°C (77°F) [RH = 79%]
Pressure (altimeter): 29.70 inches Hg (1006.0 mb)
Winds: from the S (180 degrees) at 14 MPH (12 knots; 6.2 m/s)
Visibility: 6 or more miles (10+ km)
Ceiling: 15000 feet AGL
Clouds: few clouds at 1500 feet AGL
scattered clouds at 6000 feet AGL
broken clouds at 15000 feet AGL
Weather: -SHRA  (light rain showers)

METAR text: RJFM 100500Z 16011KT 9999 -SHRA FEW015 BKN030 BKN070 28/25 Q1007
Conditions at: RJFM (MIYAZAKI AIRPORT, JP) observed 0500 UTC 10 July 2020
Temperature: 28.0°C (82°F)
Dewpoint: 25.0°C (77°F) [RH = 84%]
Pressure (altimeter): 29.73 inches Hg (1007.0 mb)
Winds: from the SSE (160 degrees) at 13 MPH (11 knots; 5.7 m/s)
Visibility: 6 or more miles (10+ km)
Ceiling: 3000 feet AGL
Clouds: few clouds at 1500 feet AGL
broken clouds at 3000 feet AGL
broken clouds at 7000 feet AGL
Weather: -SHRA  (light rain showers)

METAR text: RJFM 100400Z 15014KT 9999 -SHRA FEW015 BKN030 BKN090 27/25 Q1007
Conditions at: RJFM (MIYAZAKI AIRPORT, JP) observed 0400 UTC 10 July 2020
Temperature: 27.0°C (81°F)
Dewpoint: 25.0°C (77°F) [RH = 89%]
Pressure (altimeter): 29.73 inches Hg (1007.0 mb)
Winds: from the SSE (150 degrees) at 16 MPH (14 knots; 7.2 m/s)
Visibility: 6 or more miles (10+ km)
Ceiling: 3000 feet AGL
Clouds: few clouds at 1500 feet AGL
broken clouds at 3000 feet AGL
broken clouds at 9000 feet AGL
Weather: -SHRA  (light rain showers)

METAR text: RJFM 100300Z 15014KT 9999 FEW015 BKN030 BKN/// 28/25 Q1007
Conditions at: RJFM (MIYAZAKI AIRPORT, JP) observed 0300 UTC 10 July 2020
Temperature: 28.0°C (82°F)
Dewpoint: 25.0°C (77°F) [RH = 84%]
Pressure (altimeter): 29.73 inches Hg (1007.0 mb)
Winds: from the SSE (150 degrees) at 16 MPH (14 knots; 7.2 m/s)
Visibility: 6 or more miles (10+ km)
Ceiling: 3000 feet AGL
Clouds: few clouds at 1500 feet AGL
broken clouds at 3000 feet AGL
Weather: no significant weather observed at this time

METAR text: RJFM 100200Z 15008KT 9999 FEW010 SCT030 BKN/// 27/26 Q1007
Conditions at: RJFM (MIYAZAKI AIRPORT, JP) observed 0200 UTC 10 July 2020
Temperature: 27.0°C (81°F)
Dewpoint: 26.0°C (79°F) [RH = 94%]
Pressure (altimeter): 29.73 inches Hg (1007.0 mb)
Winds: from the SSE (150 degrees) at 9 MPH (8 knots; 4.1 m/s)
Visibility: 6 or more miles (10+ km)
Ceiling: at least 12,000 feet AGL
Clouds: few clouds at 1000 feet AGL
scattered clouds at 3000 feet AGL
Weather: no significant weather observed at this time

METAR text: RJFM 100131Z 22003KT 150V300 5000 -SHRA BR FEW005 SCT025 BKN030 25/24 Q1007 RMK 1ST005 3CU025 5CU030 A2975
Conditions at: RJFM (MIYAZAKI AIRPORT, JP) observed 0131 UTC 10 July 2020
Temperature: 25.0°C (77°F)
Dewpoint: 24.0°C (75°F) [RH = 94%]
Pressure (altimeter): 29.73 inches Hg (1007.0 mb)
Winds: from the SW (220 degrees) at 3 MPH (3 knots; 1.5 m/s)
Visibility: 3 miles ( 5 km)
Ceiling: 3000 feet AGL
Clouds: few clouds at 500 feet AGL
scattered clouds at 2500 feet AGL
broken clouds at 3000 feet AGL
Weather: -SHRA BR  (light rain showers, mist)

METAR text: RJFM 100100Z 10005KT 060V150 4500 -SHRA BR FEW005 SCT015 BKN030 25/23 Q1007
Conditions at: RJFM (MIYAZAKI AIRPORT, JP) observed 0100 UTC 10 July 2020
Temperature: 25.0°C (77°F)
Dewpoint: 23.0°C (73°F) [RH = 89%]
Pressure (altimeter): 29.73 inches Hg (1007.0 mb)
Winds: from the E (100 degrees) at 6 MPH (5 knots; 2.6 m/s)
Visibility: 2.80 miles (4.51 km)
Ceiling: 3000 feet AGL
Clouds: few clouds at 500 feet AGL
scattered clouds at 1500 feet AGL
broken clouds at 3000 feet AGL
Weather: -SHRA BR  (light rain showers, mist)

METAR text: RJFM 100000Z 05004KT 9999 FEW005 SCT025 BKN170 26/24 Q1008
Conditions at: RJFM (MIYAZAKI AIRPORT, JP) observed 0000 UTC 10 July 2020
Temperature: 26.0°C (79°F)
Dewpoint: 24.0°C (75°F) [RH = 89%]
Pressure (altimeter): 29.76 inches Hg (1008.0 mb)
Winds: from the NE (50 degrees) at 5 MPH (4 knots; 2.1 m/s)
Visibility: 6 or more miles (10+ km)
Ceiling: 17000 feet AGL
Clouds: few clouds at 500 feet AGL
scattered clouds at 2500 feet AGL
broken clouds at 17000 feet AGL
Weather: no significant weather observed at this time

METAR text: RJFM 092300Z VRB02KT 9999 VCFG FEW002 SCT030 BKN170 26/24 Q1008
Conditions at: RJFM (MIYAZAKI AIRPORT, JP) observed 2300 UTC 09 July 2020
Temperature: 26.0°C (79°F)
Dewpoint: 24.0°C (75°F) [RH = 89%]
Pressure (altimeter): 29.76 inches Hg (1008.0 mb)
Winds: variable direction winds at 2 MPH (2 knots; 1.0 m/s)
Visibility: 6 or more miles (10+ km)
Ceiling: 17000 feet AGL
Clouds: few clouds at 200 feet AGL
scattered clouds at 3000 feet AGL
broken clouds at 17000 feet AGL
Weather: VCFG  (fog in vicinity)

METAR text: RJFM 092200Z VRB01KT 6000 BCFG FEW001 SCT030 BKN130 24/24 Q1007
Conditions at: RJFM (MIYAZAKI AIRPORT, JP) observed 2200 UTC 09 July 2020
Temperature: 24.0°C (75°F)
Dewpoint: 24.0°C (75°F) [RH = 100%]
Pressure (altimeter): 29.73 inches Hg (1007.0 mb)
Winds: variable direction winds at 1 MPH (1 knots; 0.5 m/s)
Visibility: 4 miles ( 6 km)
Ceiling: 13000 feet AGL
Clouds: few clouds at 100 feet AGL
scattered clouds at 3000 feet AGL
broken clouds at 13000 feet AGL
Weather: BCFG  (patches of fog)

METAR text: RJFM 092110Z VRB02KT 7000 BCFG FEW008 SCT090 BKN140 23/23 Q1007 RMK 1ST008 3AC090 6AC140 A2976 FG SW-NW
Conditions at: RJFM (MIYAZAKI AIRPORT, JP) observed 2110 UTC 09 July 2020
Temperature: 23.0°C (73°F)
Dewpoint: 23.0°C (73°F) [RH = 100%]
Pressure (altimeter): 29.73 inches Hg (1007.0 mb)
Winds: variable direction winds at 2 MPH (2 knots; 1.0 m/s)
Visibility: 4 miles ( 7 km)
Ceiling: 14000 feet AGL
Clouds: few clouds at 800 feet AGL
scattered clouds at 9000 feet AGL
broken clouds at 14000 feet AGL
Weather: BCFG  (patches of fog)

METAR text: RJFM 091200Z 15012KT 9000 -SHRA FEW002 BKN025 BKN100 23/23 Q1008
Conditions at: RJFM (MIYAZAKI AIRPORT, JP) observed 1200 UTC 09 July 2020
Temperature: 23.0°C (73°F)
Dewpoint: 23.0°C (73°F) [RH = 100%]
Pressure (altimeter): 29.76 inches Hg (1008.0 mb)
Winds: from the SSE (150 degrees) at 14 MPH (12 knots; 6.2 m/s)
Visibility: 6 miles ( 9 km)
Ceiling: 2500 feet AGL
Clouds: few clouds at 200 feet AGL
broken clouds at 2500 feet AGL
broken clouds at 10000 feet AGL
Weather: -SHRA  (light rain showers)

METAR text: RJFM 091100Z 15011KT 9999 -SHRA FEW002 SCT030 BKN070 23/23 Q1008
Conditions at: RJFM (MIYAZAKI AIRPORT, JP) observed 1100 UTC 09 July 2020
Temperature: 23.0°C (73°F)
Dewpoint: 23.0°C (73°F) [RH = 100%]
Pressure (altimeter): 29.76 inches Hg (1008.0 mb)
Winds: from the SSE (150 degrees) at 13 MPH (11 knots; 5.7 m/s)
Visibility: 6 or more miles (10+ km)
Ceiling: 7000 feet AGL
Clouds: few clouds at 200 feet AGL
scattered clouds at 3000 feet AGL
broken clouds at 7000 feet AGL
Weather: -SHRA  (light rain showers)

METAR text: RJFM 091000Z 14011KT 9999 -SHRA FEW004 SCT025 BKN100 23/22 Q1007
Conditions at: RJFM (MIYAZAKI AIRPORT, JP) observed 1000 UTC 09 July 2020
Temperature: 23.0°C (73°F)
Dewpoint: 22.0°C (72°F) [RH = 94%]
Pressure (altimeter): 29.73 inches Hg (1007.0 mb)
Winds: from the SE (140 degrees) at 13 MPH (11 knots; 5.7 m/s)
Visibility: 6 or more miles (10+ km)
Ceiling: 10000 feet AGL
Clouds: few clouds at 400 feet AGL
scattered clouds at 2500 feet AGL
broken clouds at 10000 feet AGL
Weather: -SHRA  (light rain showers)

METAR text: RJFM 090900Z 17009KT 9999 VCSH FEW010 SCT025 BKN100 24/23 Q1006
Conditions at: RJFM (MIYAZAKI AIRPORT, JP) observed 0900 UTC 09 July 2020
Temperature: 24.0°C (75°F)
Dewpoint: 23.0°C (73°F) [RH = 94%]
Pressure (altimeter): 29.70 inches Hg (1006.0 mb)
Winds: from the S (170 degrees) at 10 MPH (9 knots; 4.6 m/s)
Visibility: 6 or more miles (10+ km)
Ceiling: 10000 feet AGL
Clouds: few clouds at 1000 feet AGL
scattered clouds at 2500 feet AGL
broken clouds at 10000 feet AGL
Weather: VCSH  (showers in vicinity)

METAR text: RJFM 090800Z 17011KT 9999 FEW010 SCT030 BKN100 25/23 Q1007
Conditions at: RJFM (MIYAZAKI AIRPORT, JP) observed 0800 UTC 09 July 2020
Temperature: 25.0°C (77°F)
Dewpoint: 23.0°C (73°F) [RH = 89%]
Pressure (altimeter): 29.73 inches Hg (1007.0 mb)
Winds: from the S (170 degrees) at 13 MPH (11 knots; 5.7 m/s)
Visibility: 6 or more miles (10+ km)
Ceiling: 10000 feet AGL
Clouds: few clouds at 1000 feet AGL
scattered clouds at 3000 feet AGL
broken clouds at 10000 feet AGL
Weather: no significant weather observed at this time

METAR text: RJFM 090700Z 16012KT 9999 FEW010 SCT020 BKN040 25/23 Q1006
Conditions at: RJFM (MIYAZAKI AIRPORT, JP) observed 0700 UTC 09 July 2020
Temperature: 25.0°C (77°F)
Dewpoint: 23.0°C (73°F) [RH = 89%]
Pressure (altimeter): 29.70 inches Hg (1006.0 mb)
Winds: from the SSE (160 degrees) at 14 MPH (12 knots; 6.2 m/s)
Visibility: 6 or more miles (10+ km)
Ceiling: 4000 feet AGL
Clouds: few clouds at 1000 feet AGL
scattered clouds at 2000 feet AGL
broken clouds at 4000 feet AGL
Weather: no significant weather observed at this time

METAR text: RJFM 090600Z 16012KT 9999 -SHRA BCFG FEW004 SCT025 BKN070 24/23 Q1006
Conditions at: RJFM (MIYAZAKI AIRPORT, JP) observed 0600 UTC 09 July 2020
Temperature: 24.0°C (75°F)
Dewpoint: 23.0°C (73°F) [RH = 94%]
Pressure (altimeter): 29.70 inches Hg (1006.0 mb)
Winds: from the SSE (160 degrees) at 14 MPH (12 knots; 6.2 m/s)
Visibility: 6 or more miles (10+ km)
Ceiling: 7000 feet AGL
Clouds: few clouds at 400 feet AGL
scattered clouds at 2500 feet AGL
broken clouds at 7000 feet AGL
Weather: -SHRA BCFG  (light rain showers, patches of fog)

METAR text: RJFM 090516Z 13004KT 6000 -SHRA FEW004 SCT020 BKN090 24/23 Q1007 RMK 2ST004 4CU020 6AC090 A2974
Conditions at: RJFM (MIYAZAKI AIRPORT, JP) observed 0516 UTC 09 July 2020
Temperature: 24.0°C (75°F)
Dewpoint: 23.0°C (73°F) [RH = 94%]
Pressure (altimeter): 29.73 inches Hg (1007.0 mb)
Winds: from the SE (130 degrees) at 5 MPH (4 knots; 2.1 m/s)
Visibility: 4 miles ( 6 km)
Ceiling: 9000 feet AGL
Clouds: few clouds at 400 feet AGL
scattered clouds at 2000 feet AGL
broken clouds at 9000 feet AGL
Weather: -SHRA  (light rain showers)

METAR text: RJFM 090500Z 15006KT 4000 R27/0800VP2000U SHRA BR FEW004 SCT012 BKN020 FEW025CB 23/23 Q1006
Conditions at: RJFM (MIYAZAKI AIRPORT, JP) observed 0500 UTC 09 July 2020
Temperature: 23.0°C (73°F)
Dewpoint: 23.0°C (73°F) [RH = 100%]
Pressure (altimeter): 29.70 inches Hg (1006.0 mb)
Winds: from the SSE (150 degrees) at 7 MPH (6 knots; 3.1 m/s)
Visibility: 2.49 miles (4.01 km)
Ceiling: 2000 feet AGL
Clouds: few clouds at 400 feet AGL
scattered clouds at 1200 feet AGL
broken clouds at 2000 feet AGL
few clouds at 2500 feet AGL
Weather: SHRA BR  (rain showers, mist)

METAR text: RJFM 090434Z 15003KT 100V190 2000 R27/1400VP2000D +SHRA BR FEW004 SCT015 BKN020 FEW025CB 23/23 Q1006 RMK 1ST004 3CU015 5CU020 1CB025 A2973 CB 5KM N MOV NE RI++
Conditions at: RJFM (MIYAZAKI AIRPORT, JP) observed 0434 UTC 09 July 2020
Temperature: 23.0°C (73°F)
Dewpoint: 23.0°C (73°F) [RH = 100%]
Pressure (altimeter): 29.70 inches Hg (1006.0 mb)
Winds: from the SSE (150 degrees) at 3 MPH (3 knots; 1.5 m/s)
Visibility: 1.24 miles (2.00 km)
Ceiling: 2000 feet AGL
Clouds: few clouds at 400 feet AGL
scattered clouds at 1500 feet AGL
broken clouds at 2000 feet AGL
few clouds at 2500 feet AGL
Weather: +SHRA BR  (heavy rain showers, mist)

METAR text: RJFM 090409Z 12003KT 080V160 4500 -SHRA BR FEW003 SCT008 BKN015 23/23 Q1006 RMK 1ST003 3ST008 6CU015 A2973
Conditions at: RJFM (MIYAZAKI AIRPORT, JP) observed 0409 UTC 09 July 2020
Temperature: 23.0°C (73°F)
Dewpoint: 23.0°C (73°F) [RH = 100%]
Pressure (altimeter): 29.70 inches Hg (1006.0 mb)
Winds: from the ESE (120 degrees) at 3 MPH (3 knots; 1.5 m/s)
Visibility: 2.80 miles (4.51 km)
Ceiling: 1500 feet AGL
Clouds: few clouds at 300 feet AGL
scattered clouds at 800 feet AGL
broken clouds at 1500 feet AGL
Weather: -SHRA BR  (light rain showers, mist)

METAR text: RJFM 090400Z VRB02KT 2500 R27/0650VP2000U SHRA BR FEW002 SCT008 BKN020 23/23 Q1007
Conditions at: RJFM (MIYAZAKI AIRPORT, JP) observed 0400 UTC 09 July 2020
Temperature: 23.0°C (73°F)
Dewpoint: 23.0°C (73°F) [RH = 100%]
Pressure (altimeter): 29.73 inches Hg (1007.0 mb)
Winds: variable direction winds at 2 MPH (2 knots; 1.0 m/s)
Visibility: 1.55 miles (2.49 km)
Ceiling: 2000 feet AGL
Clouds: few clouds at 200 feet AGL
scattered clouds at 800 feet AGL
broken clouds at 2000 feet AGL
Weather: SHRA BR  (rain showers, mist)

METAR text: RJFM 090300Z 15010KT 7000 -SHRA FEW015 SCT035 BKN050 24/23 Q1007
Conditions at: RJFM (MIYAZAKI AIRPORT, JP) observed 0300 UTC 09 July 2020
Temperature: 24.0°C (75°F)
Dewpoint: 23.0°C (73°F) [RH = 94%]
Pressure (altimeter): 29.73 inches Hg (1007.0 mb)
Winds: from the SSE (150 degrees) at 12 MPH (10 knots; 5.1 m/s)
Visibility: 4 miles ( 7 km)
Ceiling: 5000 feet AGL
Clouds: few clouds at 1500 feet AGL
scattered clouds at 3500 feet AGL
broken clouds at 5000 feet AGL
Weather: -SHRA  (light rain showers)

METAR text: RJFM 090200Z VRB02KT 9999 -RA FEW015 SCT045 BKN070 24/23 Q1007
Conditions at: RJFM (MIYAZAKI AIRPORT, JP) observed 0200 UTC 09 July 2020
Temperature: 24.0°C (75°F)
Dewpoint: 23.0°C (73°F) [RH = 94%]
Pressure (altimeter): 29.73 inches Hg (1007.0 mb)
Winds: variable direction winds at 2 MPH (2 knots; 1.0 m/s)
Visibility: 6 or more miles (10+ km)
Ceiling: 7000 feet AGL
Clouds: few clouds at 1500 feet AGL
scattered clouds at 4500 feet AGL
broken clouds at 7000 feet AGL
Weather: -RA  (light rain)

METAR text: RJFM 090100Z 18003KT 140V220 9999 -RA FEW015 SCT045 BKN080 23/23 Q1007
Conditions at: RJFM (MIYAZAKI AIRPORT, JP) observed 0100 UTC 09 July 2020
Temperature: 23.0°C (73°F)
Dewpoint: 23.0°C (73°F) [RH = 100%]
Pressure (altimeter): 29.73 inches Hg (1007.0 mb)
Winds: from the S (180 degrees) at 3 MPH (3 knots; 1.5 m/s)
Visibility: 6 or more miles (10+ km)
Ceiling: 8000 feet AGL
Clouds: few clouds at 1500 feet AGL
scattered clouds at 4500 feet AGL
broken clouds at 8000 feet AGL
Weather: -RA  (light rain)

METAR text: RJFM 090000Z 16006KT 9999 FEW020 BKN050 BKN080 24/22 Q1006
Conditions at: RJFM (MIYAZAKI AIRPORT, JP) observed 0000 UTC 09 July 2020
Temperature: 24.0°C (75°F)
Dewpoint: 22.0°C (72°F) [RH = 89%]
Pressure (altimeter): 29.70 inches Hg (1006.0 mb)
Winds: from the SSE (160 degrees) at 7 MPH (6 knots; 3.1 m/s)
Visibility: 6 or more miles (10+ km)
Ceiling: 5000 feet AGL
Clouds: few clouds at 2000 feet AGL
broken clouds at 5000 feet AGL
broken clouds at 8000 feet AGL
Weather: no significant weather observed at this time

Forecast for: RJFM (MIYAZAKI AIRPORT, JP)
Text: TAF RJFM 101107Z 1012/1118 23006KT 9000 -SHRA FEW010 SCT020 BKN025
Forecast period: 1200 UTC 10 July 2020 to 1800 UTC 11 July 2020
Forecast type: FROM: standard forecast or significant change
Winds: from the SW (230 degrees) at 7 MPH (6 knots; 3.1 m/s)
Visibility: 6 miles (9 km)
Ceiling: 2500 feet AGL
Clouds: few clouds at 1000 feet AGL
scattered clouds at 2000 feet AGL
broken clouds at 2500 feet AGL
Weather: -SHRA  (light rain showers)
Text: TEMPO 1021/1103 4000 -SHRA BR
Forecast period: 2100 UTC 10 July 2020 to 0300 UTC 11 July 2020
Forecast type: TEMPORARY: The following changes expected for less than half the time period
Visibility: 2.49 miles (4.01 km)
Ceiling: unknown
Clouds: missing
Weather: -SHRA BR  (light rain showers, mist)
Text: TEMPO 1106/1112 4000 -SHRA BR
Forecast period: 0600 to 1200 UTC 11 July 2020
Forecast type: TEMPORARY: The following changes expected for less than half the time period
Visibility: 2.49 miles (4.01 km)
Ceiling: unknown
Clouds: missing
Weather: -SHRA BR  (light rain showers, mist)